sensor_id;sensor_type;location;lat;lon;timestamp;P1;durP1;ratioP1;P2;durP2;ratioP2
18387;SDS011;9320;50.256;19.026;2022-11-20T00:01:21;146.33;;;56.37;;
18387;SDS011;9320;50.256;19.026;2022-11-20T00:03:50;147.37;;;60.30;;
18387;SDS011;9320;50.256;19.026;2022-11-20T00:06:19;203.47;;;73.80;;
18387;SDS011;9320;50.256;19.026;2022-11-20T00:08:48;196.30;;;72.13;;
18387;SDS011;9320;50.256;19.026;2022-11-20T00:11:17;167.13;;;65.40;;
18387;SDS011;9320;50.256;19.026;2022-11-20T00:13:47;148.33;;;55.37;;
18387;SDS011;9320;50.256;19.026;2022-11-20T00:16:17;124.87;;;52.47;;
18387;SDS011;9320;50.256;19.026;2022-11-20T00:18:48;131.43;;;52.23;;
18387;SDS011;9320;50.256;19.026;2022-11-20T00:21:17;114.73;;;47.37;;
18387;SDS011;9320;50.256;19.026;2022-11-20T00:23:47;107.90;;;45.10;;
18387;SDS011;9320;50.256;19.026;2022-11-20T00:26:16;107.43;;;44.03;;
18387;SDS011;9320;50.256;19.026;2022-11-20T00:28:49;103.67;;;43.33;;
18387;SDS011;9320;50.256;19.026;2022-11-20T00:31:18;103.37;;;43.57;;
18387;SDS011;9320;50.256;19.026;2022-11-20T00:33:48;133.67;;;53.37;;
18387;SDS011;9320;50.256;19.026;2022-11-20T00:36:17;151.00;;;58.67;;
18387;SDS011;9320;50.256;19.026;2022-11-20T00:38:46;162.33;;;61.30;;
18387;SDS011;9320;50.256;19.026;2022-11-20T00:41:18;141.30;;;57.33;;
18387;SDS011;9320;50.256;19.026;2022-11-20T00:43:46;175.03;;;66.67;;
18387;SDS011;9320;50.256;19.026;2022-11-20T00:46:14;181.70;;;66.83;;
18387;SDS011;9320;50.256;19.026;2022-11-20T00:48:44;184.23;;;67.63;;
18387;SDS011;9320;50.256;19.026;2022-11-20T00:51:14;207.63;;;74.30;;
18387;SDS011;9320;50.256;19.026;2022-11-20T00:53:44;228.87;;;85.97;;
18387;SDS011;9320;50.256;19.026;2022-11-20T00:56:13;245.63;;;86.40;;
18387;SDS011;9320;50.256;19.026;2022-11-20T00:58:42;236.23;;;85.93;;
18387;SDS011;9320;50.256;19.026;2022-11-20T01:01:13;239.20;;;86.53;;
18387;SDS011;9320;50.256;19.026;2022-11-20T01:03:43;247.93;;;89.17;;
18387;SDS011;9320;50.256;19.026;2022-11-20T01:06:14;242.53;;;89.67;;
18387;SDS011;9320;50.256;19.026;2022-11-20T01:08:44;261.33;;;92.70;;
18387;SDS011;9320;50.256;19.026;2022-11-20T01:11:13;244.73;;;89.13;;
18387;SDS011;9320;50.256;19.026;2022-11-20T01:13:43;225.60;;;83.10;;
18387;SDS011;9320;50.256;19.026;2022-11-20T01:16:13;241.50;;;89.80;;
18387;SDS011;9320;50.256;19.026;2022-11-20T01:18:44;236.20;;;85.80;;
18387;SDS011;9320;50.256;19.026;2022-11-20T01:21:15;224.03;;;82.03;;
18387;SDS011;9320;50.256;19.026;2022-11-20T01:23:44;220.80;;;84.60;;
18387;SDS011;9320;50.256;19.026;2022-11-20T01:26:14;226.73;;;84.83;;
18387;SDS011;9320;50.256;19.026;2022-11-20T01:28:44;237.40;;;86.50;;
18387;SDS011;9320;50.256;19.026;2022-11-20T01:31:12;233.87;;;83.23;;
18387;SDS011;9320;50.256;19.026;2022-11-20T01:33:43;219.57;;;81.90;;
18387;SDS011;9320;50.256;19.026;2022-11-20T01:36:12;213.10;;;82.30;;
18387;SDS011;9320;50.256;19.026;2022-11-20T01:38:43;213.93;;;79.43;;
18387;SDS011;9320;50.256;19.026;2022-11-20T01:41:11;222.60;;;81.23;;
18387;SDS011;9320;50.256;19.026;2022-11-20T01:44:01;206.57;;;76.67;;
18387;SDS011;9320;50.256;19.026;2022-11-20T01:46:29;217.17;;;82.17;;
18387;SDS011;9320;50.256;19.026;2022-11-20T01:48:59;231.30;;;85.47;;
18387;SDS011;9320;50.256;19.026;2022-11-20T01:51:33;233.83;;;83.83;;
18387;SDS011;9320;50.256;19.026;2022-11-20T01:54:06;225.70;;;81.87;;
18387;SDS011;9320;50.256;19.026;2022-11-20T01:56:39;219.63;;;80.83;;
18387;SDS011;9320;50.256;19.026;2022-11-20T01:59:11;236.67;;;85.37;;
18387;SDS011;9320;50.256;19.026;2022-11-20T02:01:43;223.97;;;82.77;;
18387;SDS011;9320;50.256;19.026;2022-11-20T02:04:11;217.50;;;81.70;;
18387;SDS011;9320;50.256;19.026;2022-11-20T02:06:42;206.37;;;79.63;;
18387;SDS011;9320;50.256;19.026;2022-11-20T02:09:13;199.53;;;77.90;;
18387;SDS011;9320;50.256;19.026;2022-11-20T02:11:41;225.67;;;83.10;;
18387;SDS011;9320;50.256;19.026;2022-11-20T02:14:10;228.87;;;85.77;;
18387;SDS011;9320;50.256;19.026;2022-11-20T02:16:38;211.43;;;82.80;;
18387;SDS011;9320;50.256;19.026;2022-11-20T02:19:12;223.37;;;80.67;;
18387;SDS011;9320;50.256;19.026;2022-11-20T02:21:52;219.03;;;81.20;;
18387;SDS011;9320;50.256;19.026;2022-11-20T02:24:31;220.20;;;79.23;;
18387;SDS011;9320;50.256;19.026;2022-11-20T02:26:59;209.17;;;80.20;;
18387;SDS011;9320;50.256;19.026;2022-11-20T02:29:31;222.13;;;83.90;;
18387;SDS011;9320;50.256;19.026;2022-11-20T02:32:02;212.17;;;81.50;;
18387;SDS011;9320;50.256;19.026;2022-11-20T02:34:31;227.83;;;82.60;;
18387;SDS011;9320;50.256;19.026;2022-11-20T02:36:59;223.20;;;86.07;;
18387;SDS011;9320;50.256;19.026;2022-11-20T02:39:27;206.23;;;80.27;;
18387;SDS011;9320;50.256;19.026;2022-11-20T02:41:57;206.73;;;79.63;;
18387;SDS011;9320;50.256;19.026;2022-11-20T02:44:29;227.30;;;84.90;;
18387;SDS011;9320;50.256;19.026;2022-11-20T02:46:57;224.33;;;82.30;;
18387;SDS011;9320;50.256;19.026;2022-11-20T02:49:25;204.87;;;79.97;;
18387;SDS011;9320;50.256;19.026;2022-11-20T02:51:53;204.90;;;80.73;;
18387;SDS011;9320;50.256;19.026;2022-11-20T02:54:21;224.83;;;80.90;;
18387;SDS011;9320;50.256;19.026;2022-11-20T02:56:49;208.77;;;79.27;;
18387;SDS011;9320;50.256;19.026;2022-11-20T02:59:18;194.30;;;77.90;;
18387;SDS011;9320;50.256;19.026;2022-11-20T03:01:47;195.07;;;76.17;;
18387;SDS011;9320;50.256;19.026;2022-11-20T03:04:15;189.17;;;69.43;;
18387;SDS011;9320;50.256;19.026;2022-11-20T03:06:43;181.03;;;69.77;;
18387;SDS011;9320;50.256;19.026;2022-11-20T03:09:11;168.73;;;64.53;;
18387;SDS011;9320;50.256;19.026;2022-11-20T03:11:40;163.90;;;63.27;;
18387;SDS011;9320;50.256;19.026;2022-11-20T03:14:08;154.77;;;62.37;;
18387;SDS011;9320;50.256;19.026;2022-11-20T03:16:37;153.57;;;60.87;;
18387;SDS011;9320;50.256;19.026;2022-11-20T03:19:05;159.00;;;63.57;;
18387;SDS011;9320;50.256;19.026;2022-11-20T03:21:33;145.83;;;58.63;;
18387;SDS011;9320;50.256;19.026;2022-11-20T03:24:01;154.03;;;60.77;;
18387;SDS011;9320;50.256;19.026;2022-11-20T03:26:30;149.60;;;58.93;;
18387;SDS011;9320;50.256;19.026;2022-11-20T03:28:58;149.43;;;57.07;;
18387;SDS011;9320;50.256;19.026;2022-11-20T03:31:28;152.87;;;60.87;;
18387;SDS011;9320;50.256;19.026;2022-11-20T03:33:59;152.43;;;58.90;;
18387;SDS011;9320;50.256;19.026;2022-11-20T03:36:28;159.40;;;61.53;;
18387;SDS011;9320;50.256;19.026;2022-11-20T03:38:56;145.77;;;57.77;;
18387;SDS011;9320;50.256;19.026;2022-11-20T03:41:26;147.10;;;58.27;;
18387;SDS011;9320;50.256;19.026;2022-11-20T03:43:56;140.03;;;55.97;;
18387;SDS011;9320;50.256;19.026;2022-11-20T03:46:25;152.70;;;57.27;;
18387;SDS011;9320;50.256;19.026;2022-11-20T03:48:54;141.23;;;54.37;;
18387;SDS011;9320;50.256;19.026;2022-11-20T03:51:24;143.93;;;59.60;;
18387;SDS011;9320;50.256;19.026;2022-11-20T03:53:54;149.50;;;59.33;;
18387;SDS011;9320;50.256;19.026;2022-11-20T03:56:24;154.40;;;57.57;;
18387;SDS011;9320;50.256;19.026;2022-11-20T03:58:54;149.07;;;60.87;;
18387;SDS011;9320;50.256;19.026;2022-11-20T04:01:22;139.60;;;55.97;;
18387;SDS011;9320;50.256;19.026;2022-11-20T04:03:52;132.93;;;55.23;;
18387;SDS011;9320;50.256;19.026;2022-11-20T04:06:22;144.10;;;56.90;;
18387;SDS011;9320;50.256;19.026;2022-11-20T04:08:53;138.60;;;53.80;;
18387;SDS011;9320;50.256;19.026;2022-11-20T04:11:22;142.13;;;55.73;;
18387;SDS011;9320;50.256;19.026;2022-11-20T04:13:52;133.87;;;54.67;;
18387;SDS011;9320;50.256;19.026;2022-11-20T04:16:21;155.23;;;59.10;;
18387;SDS011;9320;50.256;19.026;2022-11-20T04:18:51;138.37;;;56.07;;
18387;SDS011;9320;50.256;19.026;2022-11-20T04:21:20;142.13;;;54.83;;
18387;SDS011;9320;50.256;19.026;2022-11-20T04:23:49;158.87;;;58.67;;
18387;SDS011;9320;50.256;19.026;2022-11-20T04:26:19;160.23;;;62.03;;
18387;SDS011;9320;50.256;19.026;2022-11-20T04:28:48;162.00;;;63.40;;
18387;SDS011;9320;50.256;19.026;2022-11-20T04:31:17;167.90;;;63.83;;
18387;SDS011;9320;50.256;19.026;2022-11-20T04:33:46;168.17;;;63.57;;
18387;SDS011;9320;50.256;19.026;2022-11-20T04:36:15;178.43;;;67.03;;
18387;SDS011;9320;50.256;19.026;2022-11-20T04:38:44;170.77;;;66.53;;
18387;SDS011;9320;50.256;19.026;2022-11-20T04:41:23;176.53;;;65.30;;
18387;SDS011;9320;50.256;19.026;2022-11-20T04:43:53;192.47;;;66.63;;
18387;SDS011;9320;50.256;19.026;2022-11-20T04:46:26;173.73;;;64.40;;
18387;SDS011;9320;50.256;19.026;2022-11-20T04:48:54;169.07;;;62.40;;
18387;SDS011;9320;50.256;19.026;2022-11-20T04:51:23;157.83;;;60.90;;
18387;SDS011;9320;50.256;19.026;2022-11-20T04:53:51;168.23;;;64.47;;
18387;SDS011;9320;50.256;19.026;2022-11-20T04:56:19;165.37;;;61.50;;
18387;SDS011;9320;50.256;19.026;2022-11-20T04:58:48;167.47;;;61.97;;
18387;SDS011;9320;50.256;19.026;2022-11-20T05:01:17;164.33;;;62.90;;
18387;SDS011;9320;50.256;19.026;2022-11-20T05:03:46;165.37;;;62.83;;
18387;SDS011;9320;50.256;19.026;2022-11-20T05:06:15;161.53;;;63.13;;
18387;SDS011;9320;50.256;19.026;2022-11-20T05:08:44;159.17;;;62.23;;
18387;SDS011;9320;50.256;19.026;2022-11-20T05:11:13;162.13;;;60.93;;
18387;SDS011;9320;50.256;19.026;2022-11-20T05:13:42;167.70;;;64.47;;
18387;SDS011;9320;50.256;19.026;2022-11-20T05:16:13;176.23;;;64.13;;
18387;SDS011;9320;50.256;19.026;2022-11-20T05:18:43;159.30;;;62.23;;
18387;SDS011;9320;50.256;19.026;2022-11-20T05:21:12;167.20;;;63.70;;
18387;SDS011;9320;50.256;19.026;2022-11-20T05:23:40;166.60;;;63.33;;
18387;SDS011;9320;50.256;19.026;2022-11-20T05:26:12;167.17;;;63.67;;
18387;SDS011;9320;50.256;19.026;2022-11-20T05:28:40;166.80;;;61.37;;
18387;SDS011;9320;50.256;19.026;2022-11-20T05:31:09;162.87;;;61.53;;
18387;SDS011;9320;50.256;19.026;2022-11-20T05:33:40;164.03;;;63.10;;
18387;SDS011;9320;50.256;19.026;2022-11-20T05:36:09;159.80;;;61.70;;
18387;SDS011;9320;50.256;19.026;2022-11-20T05:38:39;166.97;;;65.03;;
18387;SDS011;9320;50.256;19.026;2022-11-20T05:41:08;160.53;;;62.30;;
18387;SDS011;9320;50.256;19.026;2022-11-20T05:43:37;153.43;;;62.67;;
18387;SDS011;9320;50.256;19.026;2022-11-20T05:46:07;158.13;;;61.67;;
18387;SDS011;9320;50.256;19.026;2022-11-20T05:48:37;150.27;;;62.00;;
18387;SDS011;9320;50.256;19.026;2022-11-20T05:51:07;152.90;;;59.63;;
18387;SDS011;9320;50.256;19.026;2022-11-20T05:53:36;160.40;;;62.63;;
18387;SDS011;9320;50.256;19.026;2022-11-20T05:56:12;151.93;;;61.57;;
18387;SDS011;9320;50.256;19.026;2022-11-20T05:58:41;143.93;;;58.50;;
18387;SDS011;9320;50.256;19.026;2022-11-20T06:01:11;153.73;;;60.00;;
18387;SDS011;9320;50.256;19.026;2022-11-20T06:03:42;152.97;;;60.70;;
18387;SDS011;9320;50.256;19.026;2022-11-20T06:06:14;155.83;;;59.67;;
18387;SDS011;9320;50.256;19.026;2022-11-20T06:08:42;143.77;;;58.50;;
18387;SDS011;9320;50.256;19.026;2022-11-20T06:11:11;151.80;;;60.77;;
18387;SDS011;9320;50.256;19.026;2022-11-20T06:13:40;150.77;;;58.27;;
18387;SDS011;9320;50.256;19.026;2022-11-20T06:16:09;159.93;;;61.17;;
18387;SDS011;9320;50.256;19.026;2022-11-20T06:18:38;155.83;;;60.57;;
18387;SDS011;9320;50.256;19.026;2022-11-20T06:21:08;146.27;;;55.13;;
18387;SDS011;9320;50.256;19.026;2022-11-20T06:23:38;149.03;;;56.47;;
18387;SDS011;9320;50.256;19.026;2022-11-20T06:26:06;135.50;;;54.43;;
18387;SDS011;9320;50.256;19.026;2022-11-20T06:28:35;134.13;;;54.97;;
18387;SDS011;9320;50.256;19.026;2022-11-20T06:31:04;135.67;;;53.40;;
18387;SDS011;9320;50.256;19.026;2022-11-20T06:33:32;121.90;;;51.33;;
18387;SDS011;9320;50.256;19.026;2022-11-20T06:36:01;132.83;;;53.07;;
18387;SDS011;9320;50.256;19.026;2022-11-20T06:38:37;129.77;;;53.73;;
18387;SDS011;9320;50.256;19.026;2022-11-20T06:41:06;133.07;;;53.97;;
18387;SDS011;9320;50.256;19.026;2022-11-20T06:43:37;127.70;;;52.57;;
18387;SDS011;9320;50.256;19.026;2022-11-20T06:46:05;132.30;;;55.73;;
18387;SDS011;9320;50.256;19.026;2022-11-20T06:48:33;133.23;;;53.90;;
18387;SDS011;9320;50.256;19.026;2022-11-20T06:51:02;133.67;;;55.53;;
18387;SDS011;9320;50.256;19.026;2022-11-20T06:53:30;139.97;;;55.63;;
18387;SDS011;9320;50.256;19.026;2022-11-20T06:56:00;124.83;;;52.20;;
18387;SDS011;9320;50.256;19.026;2022-11-20T06:58:29;141.00;;;55.07;;
18387;SDS011;9320;50.256;19.026;2022-11-20T07:00:58;136.20;;;54.80;;
18387;SDS011;9320;50.256;19.026;2022-11-20T07:03:26;139.17;;;55.60;;
18387;SDS011;9320;50.256;19.026;2022-11-20T07:05:54;145.07;;;58.47;;
18387;SDS011;9320;50.256;19.026;2022-11-20T07:08:23;134.40;;;56.20;;
18387;SDS011;9320;50.256;19.026;2022-11-20T07:10:52;147.70;;;59.43;;
18387;SDS011;9320;50.256;19.026;2022-11-20T07:13:25;157.83;;;61.27;;
18387;SDS011;9320;50.256;19.026;2022-11-20T07:15:53;160.77;;;61.50;;
18387;SDS011;9320;50.256;19.026;2022-11-20T07:18:22;158.93;;;62.90;;
18387;SDS011;9320;50.256;19.026;2022-11-20T07:20:50;177.33;;;67.63;;
18387;SDS011;9320;50.256;19.026;2022-11-20T07:23:18;214.20;;;86.30;;
18387;SDS011;9320;50.256;19.026;2022-11-20T07:25:46;188.27;;;82.00;;
18387;SDS011;9320;50.256;19.026;2022-11-20T07:28:14;156.97;;;66.13;;
18387;SDS011;9320;50.256;19.026;2022-11-20T07:30:43;151.47;;;57.33;;
18387;SDS011;9320;50.256;19.026;2022-11-20T07:33:17;160.83;;;62.70;;
18387;SDS011;9320;50.256;19.026;2022-11-20T07:35:45;158.87;;;63.40;;
18387;SDS011;9320;50.256;19.026;2022-11-20T07:38:13;146.33;;;59.83;;
18387;SDS011;9320;50.256;19.026;2022-11-20T07:40:42;154.30;;;62.40;;
18387;SDS011;9320;50.256;19.026;2022-11-20T07:43:10;167.03;;;68.57;;
18387;SDS011;9320;50.256;19.026;2022-11-20T07:45:38;182.93;;;72.03;;
18387;SDS011;9320;50.256;19.026;2022-11-20T07:48:07;194.83;;;79.00;;
18387;SDS011;9320;50.256;19.026;2022-11-20T07:50:35;179.50;;;76.27;;
18387;SDS011;9320;50.256;19.026;2022-11-20T07:53:03;188.47;;;74.60;;
18387;SDS011;9320;50.256;19.026;2022-11-20T07:55:32;190.13;;;76.80;;
18387;SDS011;9320;50.256;19.026;2022-11-20T07:58:00;178.67;;;69.53;;
18387;SDS011;9320;50.256;19.026;2022-11-20T08:00:28;180.03;;;73.00;;
18387;SDS011;9320;50.256;19.026;2022-11-20T08:02:56;172.53;;;71.37;;
18387;SDS011;9320;50.256;19.026;2022-11-20T08:05:26;166.87;;;69.47;;
18387;SDS011;9320;50.256;19.026;2022-11-20T08:07:54;147.93;;;61.90;;
18387;SDS011;9320;50.256;19.026;2022-11-20T08:10:22;138.07;;;58.07;;
18387;SDS011;9320;50.256;19.026;2022-11-20T08:12:50;128.30;;;55.30;;
18387;SDS011;9320;50.256;19.026;2022-11-20T08:15:38;127.23;;;53.40;;
18387;SDS011;9320;50.256;19.026;2022-11-20T08:18:08;124.80;;;51.67;;
18387;SDS011;9320;50.256;19.026;2022-11-20T08:21:00;130.23;;;52.97;;
18387;SDS011;9320;50.256;19.026;2022-11-20T08:23:29;114.53;;;49.17;;
18387;SDS011;9320;50.256;19.026;2022-11-20T08:25:57;118.50;;;51.27;;
18387;SDS011;9320;50.256;19.026;2022-11-20T08:28:25;119.57;;;50.93;;
18387;SDS011;9320;50.256;19.026;2022-11-20T08:30:57;116.40;;;49.50;;
18387;SDS011;9320;50.256;19.026;2022-11-20T08:33:26;109.77;;;50.07;;
18387;SDS011;9320;50.256;19.026;2022-11-20T08:35:59;116.37;;;50.23;;
18387;SDS011;9320;50.256;19.026;2022-11-20T08:38:27;110.37;;;50.33;;
18387;SDS011;9320;50.256;19.026;2022-11-20T08:40:56;107.83;;;49.53;;
18387;SDS011;9320;50.256;19.026;2022-11-20T08:43:42;109.13;;;48.60;;
18387;SDS011;9320;50.256;19.026;2022-11-20T08:46:11;104.77;;;48.00;;
18387;SDS011;9320;50.256;19.026;2022-11-20T08:48:39;105.73;;;49.10;;
18387;SDS011;9320;50.256;19.026;2022-11-20T08:51:08;112.33;;;49.57;;
18387;SDS011;9320;50.256;19.026;2022-11-20T08:53:36;97.27;;;46.23;;
18387;SDS011;9320;50.256;19.026;2022-11-20T08:56:05;103.93;;;45.00;;
18387;SDS011;9320;50.256;19.026;2022-11-20T08:58:33;92.10;;;43.53;;
18387;SDS011;9320;50.256;19.026;2022-11-20T09:01:22;93.90;;;42.53;;
18387;SDS011;9320;50.256;19.026;2022-11-20T09:03:50;90.80;;;44.90;;
18387;SDS011;9320;50.256;19.026;2022-11-20T09:06:20;97.20;;;46.93;;
18387;SDS011;9320;50.256;19.026;2022-11-20T09:08:51;92.37;;;44.60;;
18387;SDS011;9320;50.256;19.026;2022-11-20T09:11:19;93.33;;;44.87;;
18387;SDS011;9320;50.256;19.026;2022-11-20T09:13:47;81.27;;;40.00;;
18387;SDS011;9320;50.256;19.026;2022-11-20T09:16:15;83.27;;;39.63;;
18387;SDS011;9320;50.256;19.026;2022-11-20T09:18:43;78.53;;;39.23;;
18387;SDS011;9320;50.256;19.026;2022-11-20T09:21:12;72.47;;;38.33;;
18387;SDS011;9320;50.256;19.026;2022-11-20T09:23:42;71.93;;;36.93;;
18387;SDS011;9320;50.256;19.026;2022-11-20T09:26:10;72.10;;;36.40;;
18387;SDS011;9320;50.256;19.026;2022-11-20T09:28:40;78.00;;;38.93;;
18387;SDS011;9320;50.256;19.026;2022-11-20T09:31:09;72.10;;;35.37;;
18387;SDS011;9320;50.256;19.026;2022-11-20T09:33:41;73.27;;;37.87;;
18387;SDS011;9320;50.256;19.026;2022-11-20T09:36:10;71.70;;;35.37;;
18387;SDS011;9320;50.256;19.026;2022-11-20T09:38:38;65.30;;;33.40;;
18387;SDS011;9320;50.256;19.026;2022-11-20T09:41:10;69.93;;;34.53;;
18387;SDS011;9320;50.256;19.026;2022-11-20T09:43:59;70.23;;;34.20;;
18387;SDS011;9320;50.256;19.026;2022-11-20T09:46:35;68.30;;;35.83;;
18387;SDS011;9320;50.256;19.026;2022-11-20T09:49:15;72.63;;;37.47;;
18387;SDS011;9320;50.256;19.026;2022-11-20T09:51:58;72.63;;;38.27;;
18387;SDS011;9320;50.256;19.026;2022-11-20T09:54:27;70.30;;;36.13;;
18387;SDS011;9320;50.256;19.026;2022-11-20T09:57:00;70.47;;;35.37;;
18387;SDS011;9320;50.256;19.026;2022-11-20T09:59:33;65.87;;;33.23;;
18387;SDS011;9320;50.256;19.026;2022-11-20T10:02:12;64.63;;;31.10;;
18387;SDS011;9320;50.256;19.026;2022-11-20T10:04:46;57.17;;;30.03;;
18387;SDS011;9320;50.256;19.026;2022-11-20T10:07:20;62.00;;;31.00;;
18387;SDS011;9320;50.256;19.026;2022-11-20T10:09:59;62.47;;;31.23;;
18387;SDS011;9320;50.256;19.026;2022-11-20T10:12:31;57.30;;;31.57;;
18387;SDS011;9320;50.256;19.026;2022-11-20T10:15:11;60.73;;;29.90;;
18387;SDS011;9320;50.256;19.026;2022-11-20T10:17:55;61.77;;;31.00;;
18387;SDS011;9320;50.256;19.026;2022-11-20T10:20:34;57.27;;;29.67;;
18387;SDS011;9320;50.256;19.026;2022-11-20T10:26:17;62.53;;;30.60;;
18387;SDS011;9320;50.256;19.026;2022-11-20T10:28:54;54.97;;;29.07;;
18387;SDS011;9320;50.256;19.026;2022-11-20T10:31:34;57.40;;;29.27;;
18387;SDS011;9320;50.256;19.026;2022-11-20T10:34:06;56.33;;;29.00;;
18387;SDS011;9320;50.256;19.026;2022-11-20T10:36:46;58.70;;;31.87;;
18387;SDS011;9320;50.256;19.026;2022-11-20T10:39:19;50.63;;;27.43;;
18387;SDS011;9320;50.256;19.026;2022-11-20T10:41:55;51.70;;;27.00;;
18387;SDS011;9320;50.256;19.026;2022-11-20T10:44:27;47.10;;;25.43;;
18387;SDS011;9320;50.256;19.026;2022-11-20T10:47:12;49.17;;;26.03;;
18387;SDS011;9320;50.256;19.026;2022-11-20T10:49:41;50.07;;;26.97;;
18387;SDS011;9320;50.256;19.026;2022-11-20T10:52:13;55.37;;;29.03;;
18387;SDS011;9320;50.256;19.026;2022-11-20T10:54:49;55.00;;;28.80;;
18387;SDS011;9320;50.256;19.026;2022-11-20T10:57:29;59.30;;;29.23;;
18387;SDS011;9320;50.256;19.026;2022-11-20T11:00:08;55.23;;;28.87;;
18387;SDS011;9320;50.256;19.026;2022-11-20T11:02:40;53.80;;;28.40;;
18387;SDS011;9320;50.256;19.026;2022-11-20T11:05:17;48.43;;;25.77;;
18387;SDS011;9320;50.256;19.026;2022-11-20T11:07:53;52.10;;;26.70;;
18387;SDS011;9320;50.256;19.026;2022-11-20T11:10:23;52.13;;;27.10;;
18387;SDS011;9320;50.256;19.026;2022-11-20T11:12:56;51.43;;;26.97;;
18387;SDS011;9320;50.256;19.026;2022-11-20T11:15:26;54.80;;;27.90;;
18387;SDS011;9320;50.256;19.026;2022-11-20T11:17:56;53.37;;;27.23;;
18387;SDS011;9320;50.256;19.026;2022-11-20T11:20:25;55.17;;;28.60;;
18387;SDS011;9320;50.256;19.026;2022-11-20T11:22:54;53.70;;;28.00;;
18387;SDS011;9320;50.256;19.026;2022-11-20T11:25:25;53.23;;;27.57;;
18387;SDS011;9320;50.256;19.026;2022-11-20T11:27:56;55.53;;;28.47;;
18387;SDS011;9320;50.256;19.026;2022-11-20T11:30:27;57.83;;;29.53;;
18387;SDS011;9320;50.256;19.026;2022-11-20T11:33:05;54.97;;;27.53;;
18387;SDS011;9320;50.256;19.026;2022-11-20T11:35:38;54.87;;;29.67;;
18387;SDS011;9320;50.256;19.026;2022-11-20T11:38:17;58.47;;;29.23;;
18387;SDS011;9320;50.256;19.026;2022-11-20T11:40:49;61.47;;;30.80;;
18387;SDS011;9320;50.256;19.026;2022-11-20T11:43:20;58.27;;;31.83;;
18387;SDS011;9320;50.256;19.026;2022-11-20T11:46:21;63.37;;;31.67;;
18387;SDS011;9320;50.256;19.026;2022-11-20T11:48:57;65.37;;;31.30;;
18387;SDS011;9320;50.256;19.026;2022-11-20T11:51:26;59.70;;;30.83;;
18387;SDS011;9320;50.256;19.026;2022-11-20T11:54:00;64.43;;;31.10;;
18387;SDS011;9320;50.256;19.026;2022-11-20T11:56:30;65.53;;;32.23;;
18387;SDS011;9320;50.256;19.026;2022-11-20T11:59:01;63.77;;;31.87;;
18387;SDS011;9320;50.256;19.026;2022-11-20T12:01:37;62.87;;;32.50;;
18387;SDS011;9320;50.256;19.026;2022-11-20T12:04:14;63.73;;;31.37;;
18387;SDS011;9320;50.256;19.026;2022-11-20T12:06:50;59.47;;;32.00;;
18387;SDS011;9320;50.256;19.026;2022-11-20T12:09:24;65.20;;;34.67;;
18387;SDS011;9320;50.256;19.026;2022-11-20T12:12:04;63.03;;;33.17;;
18387;SDS011;9320;50.256;19.026;2022-11-20T12:14:36;66.70;;;33.93;;
18387;SDS011;9320;50.256;19.026;2022-11-20T12:17:08;69.40;;;34.40;;
18387;SDS011;9320;50.256;19.026;2022-11-20T12:19:39;71.40;;;35.47;;
18387;SDS011;9320;50.256;19.026;2022-11-20T12:22:10;67.60;;;34.83;;
18387;SDS011;9320;50.256;19.026;2022-11-20T12:24:51;70.43;;;33.87;;
18387;SDS011;9320;50.256;19.026;2022-11-20T12:27:35;56.27;;;30.33;;
18387;SDS011;9320;50.256;19.026;2022-11-20T12:30:16;60.33;;;29.37;;
18387;SDS011;9320;50.256;19.026;2022-11-20T12:32:57;57.87;;;29.40;;
18387;SDS011;9320;50.256;19.026;2022-11-20T12:35:38;55.60;;;29.30;;
18387;SDS011;9320;50.256;19.026;2022-11-20T12:38:24;54.03;;;28.77;;
18387;SDS011;9320;50.256;19.026;2022-11-20T12:41:14;57.70;;;29.43;;
18387;SDS011;9320;50.256;19.026;2022-11-20T12:44:05;58.80;;;29.60;;
18387;SDS011;9320;50.256;19.026;2022-11-20T12:47:07;59.90;;;30.97;;
18387;SDS011;9320;50.256;19.026;2022-11-20T12:49:47;61.83;;;31.60;;
18387;SDS011;9320;50.256;19.026;2022-11-20T12:52:30;62.73;;;31.93;;
18387;SDS011;9320;50.256;19.026;2022-11-20T12:58:00;61.77;;;33.07;;
18387;SDS011;9320;50.256;19.026;2022-11-20T13:00:35;67.00;;;33.33;;
18387;SDS011;9320;50.256;19.026;2022-11-20T13:03:15;63.23;;;32.63;;
18387;SDS011;9320;50.256;19.026;2022-11-20T13:05:57;67.40;;;33.53;;
18387;SDS011;9320;50.256;19.026;2022-11-20T13:08:33;68.40;;;33.17;;
18387;SDS011;9320;50.256;19.026;2022-11-20T13:11:04;73.53;;;34.87;;
18387;SDS011;9320;50.256;19.026;2022-11-20T13:13:43;70.77;;;34.70;;
18387;SDS011;9320;50.256;19.026;2022-11-20T13:16:23;72.17;;;36.30;;
18387;SDS011;9320;50.256;19.026;2022-11-20T13:18:58;70.23;;;36.23;;
18387;SDS011;9320;50.256;19.026;2022-11-20T13:21:36;77.97;;;36.83;;
18387;SDS011;9320;50.256;19.026;2022-11-20T13:24:06;76.87;;;38.53;;
18387;SDS011;9320;50.256;19.026;2022-11-20T13:26:34;73.30;;;36.00;;
18387;SDS011;9320;50.256;19.026;2022-11-20T13:29:04;73.03;;;37.73;;
18387;SDS011;9320;50.256;19.026;2022-11-20T13:31:39;72.83;;;36.60;;
18387;SDS011;9320;50.256;19.026;2022-11-20T13:34:12;74.93;;;36.93;;
18387;SDS011;9320;50.256;19.026;2022-11-20T13:36:51;68.90;;;35.97;;
18387;SDS011;9320;50.256;19.026;2022-11-20T13:39:24;76.03;;;37.27;;
18387;SDS011;9320;50.256;19.026;2022-11-20T13:41:53;71.23;;;34.83;;
18387;SDS011;9320;50.256;19.026;2022-11-20T13:44:24;69.60;;;35.63;;
18387;SDS011;9320;50.256;19.026;2022-11-20T13:46:53;70.13;;;35.97;;
18387;SDS011;9320;50.256;19.026;2022-11-20T13:49:23;75.90;;;37.60;;
18387;SDS011;9320;50.256;19.026;2022-11-20T13:51:58;76.57;;;38.73;;
18387;SDS011;9320;50.256;19.026;2022-11-20T13:54:56;73.17;;;38.23;;
18387;SDS011;9320;50.256;19.026;2022-11-20T13:57:47;83.03;;;40.23;;
18387;SDS011;9320;50.256;19.026;2022-11-20T14:00:41;82.30;;;40.43;;
18387;SDS011;9320;50.256;19.026;2022-11-20T14:03:14;77.20;;;39.07;;
18387;SDS011;9320;50.256;19.026;2022-11-20T14:06:10;80.07;;;40.13;;
18387;SDS011;9320;50.256;19.026;2022-11-20T14:08:43;86.43;;;41.23;;
18387;SDS011;9320;50.256;19.026;2022-11-20T14:11:15;83.90;;;41.67;;
18387;SDS011;9320;50.256;19.026;2022-11-20T14:13:54;81.57;;;39.83;;
18387;SDS011;9320;50.256;19.026;2022-11-20T14:16:25;82.17;;;39.93;;
18387;SDS011;9320;50.256;19.026;2022-11-20T14:18:55;88.37;;;42.07;;
18387;SDS011;9320;50.256;19.026;2022-11-20T14:21:25;86.40;;;43.53;;
18387;SDS011;9320;50.256;19.026;2022-11-20T14:24:04;84.60;;;40.00;;
18387;SDS011;9320;50.256;19.026;2022-11-20T14:26:32;96.17;;;44.10;;
18387;SDS011;9320;50.256;19.026;2022-11-20T14:29:01;85.37;;;42.27;;
18387;SDS011;9320;50.256;19.026;2022-11-20T14:31:29;88.97;;;42.93;;
18387;SDS011;9320;50.256;19.026;2022-11-20T14:33:58;92.90;;;44.07;;
18387;SDS011;9320;50.256;19.026;2022-11-20T14:36:26;94.50;;;46.00;;
18387;SDS011;9320;50.256;19.026;2022-11-20T14:38:55;102.50;;;47.73;;
18387;SDS011;9320;50.256;19.026;2022-11-20T14:41:24;94.00;;;44.80;;
18387;SDS011;9320;50.256;19.026;2022-11-20T14:43:53;93.47;;;45.97;;
18387;SDS011;9320;50.256;19.026;2022-11-20T14:46:24;94.07;;;44.43;;